Buffalo Niagara International Airport Buffalo US
ICAO: KBUF
IATA: BUF
Category: Large
Scheduled Services: Yes

Elevation: 728 ft
TransAlt. 18000 ft.

Airport Communications:
APP/DEP:126.15
ATIS:135.35
CLNC DEL:124.7
GND:121.9
RDO:122.6
TWR:120.5

KBUF Zoom In..

Runways:

(A) RW 05 length 8829 ft width 150 ft
ILS 108.50 / hdg 55

(B) RW 14 length 7161 ft width 150 ft
---- / hdg 138

(C) RW 23 length 8829 ft width 150 ft
ILS 111.30 / hdg 235

(D) RW 32 length 7161 ft width 150 ft
ILS 109.95 / hdg 318

Location; KBUF
Day. 19 / Time. 02.54 Zulu
* Altimeter: 30.06
* Temperature: 19° c. 66.2°f.
* Wind from: 120° Speed 04 kn.
Dewpoint: 09° c.
Visibility: 10 Statute Miles.
Clouds: Few 2000 ft.

KBUF 190254Z 12004KT 10SM FEW200 19/09 A3006 RMK AO2 SLP176 T01940089 53005


Wind From 120°
Speed 04 kn.

 
 
jpsmedia.com for Web Design worldairports.se 2018   terms of use